createdAt,value
2018-01-22T00:00:19.362Z,50.70
2018-01-22T00:02:47.899Z,47.07
2018-01-22T00:05:17.036Z,45.30
2018-01-22T00:07:45.463Z,45.30
2018-01-22T00:10:13.840Z,46.50
2018-01-22T00:12:42.270Z,45.00
2018-01-22T00:15:10.733Z,47.27
2018-01-22T00:17:40.023Z,44.37
2018-01-22T00:20:08.426Z,44.03
2018-01-22T00:22:36.829Z,43.37
2018-01-22T00:25:05.252Z,42.50
2018-01-22T00:27:34.457Z,42.07
2018-01-22T00:30:02.887Z,46.43
2018-01-22T00:32:31.285Z,42.17
2018-01-22T00:34:59.719Z,47.50
2018-01-22T00:37:28.176Z,45.80
2018-01-22T00:39:57.428Z,43.33
2018-01-22T00:42:25.835Z,44.73
2018-01-22T00:44:54.224Z,47.50
2018-01-22T00:47:22.600Z,46.80
2018-01-22T00:49:51.080Z,51.13
2018-01-22T00:52:19.449Z,52.33
2018-01-22T00:54:47.879Z,46.87
2018-01-22T00:57:16.395Z,52.73
2018-01-22T00:59:44.843Z,47.90
2018-01-22T01:02:13.229Z,52.37
2018-01-22T01:04:41.679Z,51.17
2018-01-22T01:07:10.925Z,54.10
2018-01-22T01:09:39.368Z,58.00
2018-01-22T01:12:07.825Z,57.70
2018-01-22T01:14:37.004Z,57.90
2018-01-22T01:17:05.436Z,59.00
2018-01-22T01:19:33.889Z,56.10
2018-01-22T01:22:03.069Z,56.90
2018-01-22T01:24:31.437Z,54.60
2018-01-22T01:26:59.859Z,58.70
2018-01-22T01:29:28.319Z,53.20
2018-01-22T01:31:57.546Z,56.20
2018-01-22T01:34:26.178Z,57.00
2018-01-22T01:36:54.557Z,57.57
2018-01-22T01:39:22.996Z,58.80
2018-01-22T01:41:51.490Z,62.00
2018-01-22T01:44:19.926Z,59.47
2018-01-22T01:46:48.321Z,60.17
2018-01-22T01:49:17.493Z,59.97
2018-01-22T01:51:45.858Z,54.97
2018-01-22T01:54:14.278Z,52.83
2018-01-22T01:56:42.680Z,58.07
2018-01-22T01:59:11.060Z,58.10
2018-01-22T02:01:40.221Z,56.73
2018-01-22T02:04:08.648Z,53.87
2018-01-22T02:06:37.101Z,53.07
2018-01-22T02:09:05.691Z,49.53
2018-01-22T02:11:34.066Z,51.10
2018-01-22T02:14:02.495Z,53.40
2018-01-22T02:16:31.203Z,51.47
2018-01-22T02:18:59.649Z,52.87
2018-01-22T02:21:28.077Z,55.27
2018-01-22T02:23:57.269Z,52.23
2018-01-22T02:26:26.496Z,52.80
2018-01-22T02:28:54.989Z,53.57
2018-01-22T02:31:24.153Z,46.77
2018-01-22T02:33:53.297Z,50.93
2018-01-22T02:36:21.656Z,54.73
2018-01-22T02:38:50.060Z,51.73
2018-01-22T02:41:18.420Z,49.37
2018-01-22T02:43:46.869Z,49.50
2018-01-22T02:46:15.343Z,54.80
2018-01-22T02:48:44.558Z,57.17
2018-01-22T02:51:12.994Z,53.23
2018-01-22T02:53:41.468Z,54.00
2018-01-22T02:56:09.919Z,52.33
2018-01-22T02:58:38.371Z,57.17
2018-01-22T03:01:06.753Z,55.80
2018-01-22T03:03:36.074Z,52.90
2018-01-22T03:06:04.513Z,52.40
2018-01-22T03:08:33.695Z,59.53
2018-01-22T03:11:02.144Z,55.80
2018-01-22T03:13:31.350Z,57.77
2018-01-22T03:15:59.807Z,52.60
2018-01-22T03:18:28.256Z,54.43
2018-01-22T03:20:56.648Z,50.03
2018-01-22T03:23:25.843Z,53.13
2018-01-22T03:25:54.996Z,53.10
2018-01-22T03:28:23.376Z,53.37
2018-01-22T03:30:51.783Z,53.77
2018-01-22T03:33:20.205Z,50.20
2018-01-22T03:35:48.660Z,50.40
2018-01-22T03:38:17.265Z,50.10
2018-01-22T03:40:45.639Z,50.73
2018-01-22T03:43:14.002Z,50.80
2018-01-22T03:45:43.136Z,51.13
2018-01-22T03:48:11.516Z,54.00
2018-01-22T03:50:39.972Z,51.23
2018-01-22T03:53:08.366Z,50.27
2018-01-22T03:55:36.748Z,52.47
2018-01-22T03:58:05.172Z,54.60
2018-01-22T04:00:34.480Z,51.77
2018-01-22T04:03:02.907Z,54.70
2018-01-22T04:05:31.311Z,50.97
2018-01-22T04:07:59.704Z,52.90
2018-01-22T04:10:28.139Z,51.60
2018-01-22T04:12:56.571Z,52.60
2018-01-22T04:15:24.956Z,50.97
2018-01-22T04:17:53.395Z,50.60
2018-01-22T04:20:21.848Z,47.50
2018-01-22T04:22:50.292Z,47.00
2018-01-22T04:25:18.729Z,49.60
2018-01-22T04:27:47.184Z,47.30
2018-01-22T04:30:15.552Z,45.73
2018-01-22T04:32:44.779Z,45.10
2018-01-22T04:35:13.185Z,45.90
2018-01-22T04:37:41.620Z,46.40
2018-01-22T04:40:10.061Z,43.57
2018-01-22T04:42:38.597Z,41.77
2018-01-22T04:45:07.034Z,43.13
2018-01-22T04:47:36.247Z,44.73
2018-01-22T04:50:04.688Z,39.10
2018-01-22T04:52:33.072Z,43.90
2018-01-22T04:55:01.445Z,43.20
2018-01-22T04:57:29.849Z,42.10
2018-01-22T04:59:58.274Z,39.70
2018-01-22T05:02:26.663Z,41.83
2018-01-22T05:04:55.049Z,39.90
2018-01-22T05:07:23.417Z,40.83
2018-01-22T05:09:51.840Z,38.53
2018-01-22T05:12:20.291Z,40.13
2018-01-22T05:14:48.751Z,39.00
2018-01-22T05:17:17.343Z,34.37
2018-01-22T05:19:45.820Z,38.27
2018-01-22T05:22:14.287Z,36.30
2018-01-22T05:24:42.778Z,36.93
2018-01-22T05:27:11.194Z,34.70
2018-01-22T05:29:39.916Z,36.87
2018-01-22T05:32:09.152Z,34.80
2018-01-22T05:34:37.528Z,34.53
2018-01-22T05:37:05.893Z,34.63
2018-01-22T05:39:34.281Z,34.93
2018-01-22T05:42:02.719Z,34.83
2018-01-22T05:44:31.117Z,34.40
2018-01-22T05:47:00.312Z,35.03
2018-01-22T05:49:28.768Z,32.27
2018-01-22T05:51:57.180Z,33.83
2018-01-22T05:54:25.627Z,31.77
2018-01-22T05:56:54.005Z,33.70
2018-01-22T05:59:22.439Z,31.93
2018-01-22T06:01:50.802Z,30.30
2018-01-22T06:04:19.234Z,32.00
2018-01-22T06:06:47.679Z,30.37
2018-01-22T06:09:16.094Z,29.93
2018-01-22T06:11:44.477Z,29.83
2018-01-22T06:14:12.877Z,27.60
2018-01-22T06:16:41.311Z,28.90
2018-01-22T06:19:09.690Z,29.30
2018-01-22T06:21:38.124Z,29.93
2018-01-22T06:24:07.257Z,30.00
2018-01-22T06:26:35.691Z,29.97
2018-01-22T06:29:04.919Z,27.83
2018-01-22T06:31:33.362Z,29.30
2018-01-22T06:34:01.748Z,29.83
2018-01-22T06:36:30.124Z,28.23
2018-01-22T06:38:58.481Z,28.03
2018-01-22T06:41:26.863Z,27.60
2018-01-22T06:43:55.300Z,28.97
2018-01-22T06:46:23.739Z,27.87
2018-01-22T06:48:52.143Z,28.50
2018-01-22T06:51:21.272Z,27.50
2018-01-22T06:53:49.756Z,30.13
2018-01-22T06:56:18.180Z,27.50
2018-01-22T06:58:46.565Z,28.43
2018-01-22T07:01:14.987Z,28.70
2018-01-22T07:03:43.388Z,25.90
2018-01-22T07:06:11.749Z,26.00
2018-01-22T07:08:40.112Z,25.07
2018-01-22T07:11:08.477Z,25.87
2018-01-22T07:13:36.903Z,26.33
2018-01-22T07:16:05.370Z,24.03
2018-01-22T07:18:33.963Z,25.60
2018-01-22T07:21:02.384Z,23.13
2018-01-22T07:23:31.594Z,23.30
2018-01-22T07:26:00.005Z,23.13
2018-01-22T07:28:28.360Z,21.50
2018-01-22T07:30:56.783Z,21.23
2018-01-22T07:33:25.197Z,23.17
2018-01-22T07:35:53.562Z,23.07
2018-01-22T07:38:21.987Z,22.53
2018-01-22T07:40:50.461Z,22.03
2018-01-22T07:43:18.832Z,23.27
2018-01-22T07:45:47.210Z,22.83
2018-01-22T07:48:16.367Z,22.50
2018-01-22T07:50:45.508Z,22.13
2018-01-22T07:53:14.637Z,20.73
2018-01-22T07:55:43.079Z,21.20
2018-01-22T07:58:11.439Z,20.63
2018-01-22T08:00:39.805Z,22.03
2018-01-22T08:03:08.192Z,21.00
2018-01-22T08:05:36.620Z,22.30
2018-01-22T08:08:05.108Z,20.80
2018-01-22T08:10:33.549Z,22.23
2018-01-22T08:13:02.751Z,21.57
2018-01-22T08:15:31.909Z,20.50
2018-01-22T08:18:00.519Z,20.10
2018-01-22T08:20:29.650Z,19.20
2018-01-22T08:22:58.009Z,20.00
2018-01-22T08:25:27.157Z,20.07
2018-01-22T08:27:55.517Z,20.73
2018-01-22T08:30:23.940Z,20.70
2018-01-22T08:32:53.179Z,20.13
2018-01-22T08:35:21.562Z,19.63
2018-01-22T08:37:49.984Z,20.40
2018-01-22T08:40:18.543Z,19.03
2018-01-22T08:42:46.906Z,20.10
2018-01-22T08:45:15.337Z,19.37
2018-01-22T08:47:43.742Z,20.17
2018-01-22T08:50:12.858Z,18.83
2018-01-22T08:52:41.225Z,18.37
2018-01-22T08:55:10.536Z,19.43
2018-01-22T08:57:38.935Z,19.87
2018-01-22T09:00:07.302Z,17.40
2018-01-22T09:02:35.744Z,18.67
2018-01-22T09:05:04.951Z,18.20
2018-01-22T09:07:34.179Z,18.10
2018-01-22T09:10:02.661Z,17.80
2018-01-22T09:12:31.028Z,17.27
2018-01-22T09:14:59.479Z,18.20
2018-01-22T09:17:28.610Z,16.70
2018-01-22T09:19:57.030Z,18.00
2018-01-22T09:22:25.491Z,17.40
2018-01-22T09:24:53.923Z,15.63
2018-01-22T09:27:23.051Z,16.90
2018-01-22T09:29:51.488Z,17.00
2018-01-22T09:32:20.629Z,15.40
2018-01-22T09:34:49.209Z,15.50
2018-01-22T09:37:17.631Z,15.50
2018-01-22T09:39:46.127Z,15.60
2018-01-22T09:42:15.282Z,15.43
2018-01-22T09:44:43.636Z,15.97
2018-01-22T09:47:12.004Z,17.03
2018-01-22T09:49:41.204Z,16.50
2018-01-22T09:52:09.640Z,16.23
2018-01-22T09:54:38.033Z,15.90
2018-01-22T09:57:06.465Z,15.27
2018-01-22T09:59:34.832Z,15.90
2018-01-22T10:02:03.228Z,14.60
2018-01-22T10:04:31.591Z,15.07
2018-01-22T10:06:59.951Z,15.13
2018-01-22T10:09:29.104Z,15.60
2018-01-22T10:11:57.463Z,14.20
2018-01-22T10:14:25.832Z,16.87
2018-01-22T10:16:54.264Z,15.20
2018-01-22T10:19:22.692Z,14.33
2018-01-22T10:21:51.131Z,15.40
2018-01-22T10:24:20.357Z,14.23
2018-01-22T10:26:48.796Z,14.40
2018-01-22T10:29:17.231Z,13.73
2018-01-22T10:31:45.678Z,14.33
2018-01-22T10:34:14.863Z,13.60
2018-01-22T10:36:44.029Z,13.37
2018-01-22T10:39:12.400Z,13.43
2018-01-22T10:41:40.820Z,14.40
2018-01-22T10:44:10.046Z,14.17
2018-01-22T10:46:38.408Z,13.90
2018-01-22T10:49:07.583Z,13.57
2018-01-22T10:51:35.956Z,12.03
2018-01-22T10:54:04.372Z,13.80
2018-01-22T10:56:32.780Z,13.67
2018-01-22T10:59:01.206Z,13.60
2018-01-22T11:01:29.614Z,13.10
2018-01-22T11:03:58.083Z,13.80
2018-01-22T11:06:27.288Z,13.80
2018-01-22T11:08:56.421Z,13.80
2018-01-22T11:11:24.879Z,13.10
2018-01-22T11:13:53.317Z,13.80
2018-01-22T11:16:21.809Z,14.13
2018-01-22T11:18:50.944Z,14.70
2018-01-22T11:21:19.359Z,13.27
2018-01-22T11:23:47.815Z,13.63
2018-01-22T11:26:16.235Z,13.40
2018-01-22T11:28:44.608Z,13.70
2018-01-22T11:31:13.075Z,15.17
2018-01-22T11:33:41.428Z,14.63
2018-01-22T11:36:09.814Z,13.93
2018-01-22T11:38:39.095Z,14.80
2018-01-22T11:41:07.543Z,15.87
2018-01-22T11:43:36.697Z,15.30
2018-01-22T11:46:05.154Z,16.10
2018-01-22T11:48:33.532Z,15.27
2018-01-22T11:51:01.921Z,15.90
2018-01-22T11:53:30.329Z,14.73
2018-01-22T11:55:58.786Z,15.10
2018-01-22T11:58:27.989Z,15.43
2018-01-22T12:00:56.333Z,14.83
2018-01-22T12:03:25.457Z,14.70
2018-01-22T12:05:53.828Z,14.97
2018-01-22T12:08:22.196Z,15.17
2018-01-22T12:10:50.568Z,14.50
2018-01-22T12:13:19.736Z,14.90
2018-01-22T12:15:48.155Z,16.47
2018-01-22T12:18:16.524Z,16.00
2018-01-22T12:20:45.725Z,14.17
2018-01-22T12:23:14.108Z,15.50
2018-01-22T12:25:42.531Z,14.63
2018-01-22T12:28:11.132Z,18.20
2018-01-22T12:30:39.506Z,15.53
2018-01-22T12:33:07.869Z,16.37
2018-01-22T12:35:36.331Z,17.10
2018-01-22T12:38:04.718Z,17.90
2018-01-22T12:40:33.167Z,16.20
2018-01-22T12:43:01.617Z,16.03
2018-01-22T12:45:30.058Z,15.93
2018-01-22T12:47:58.519Z,14.90
2018-01-22T12:50:26.917Z,14.70
2018-01-22T12:52:55.351Z,15.70
2018-01-22T12:55:23.734Z,15.73
2018-01-22T12:57:52.192Z,15.17
2018-01-22T13:00:20.561Z,15.53
2018-01-22T13:02:48.921Z,15.87
2018-01-22T13:05:17.473Z,31.03
2018-01-22T13:07:45.896Z,22.60
2018-01-22T13:10:14.337Z,21.83
2018-01-22T13:12:42.740Z,17.27
2018-01-22T13:15:11.100Z,16.87
2018-01-22T13:17:39.529Z,17.30
2018-01-22T13:20:07.896Z,16.07
2018-01-22T13:22:36.347Z,26.00
2018-01-22T13:25:04.769Z,14.33
2018-01-22T13:27:33.133Z,15.73
2018-01-22T13:30:01.633Z,17.20
2018-01-22T13:32:30.094Z,16.70
2018-01-22T13:34:58.473Z,14.73
2018-01-22T13:37:26.856Z,16.60
2018-01-22T13:40:00.736Z,16.57
2018-01-22T13:42:29.110Z,17.07
2018-01-22T13:44:57.541Z,17.00
2018-01-22T13:47:27.387Z,17.43
2018-01-22T13:49:56.027Z,16.87
2018-01-22T13:52:24.464Z,15.70
2018-01-22T13:54:52.840Z,16.80
2018-01-22T13:57:21.224Z,16.80
2018-01-22T13:59:49.669Z,18.67
2018-01-22T14:02:18.884Z,18.30
2018-01-22T14:04:47.300Z,27.47
2018-01-22T14:07:15.697Z,20.30
2018-01-22T14:09:44.123Z,21.23
2018-01-22T14:12:12.516Z,18.00
2018-01-22T14:14:40.937Z,20.33
2018-01-22T14:17:09.308Z,17.50
2018-01-22T14:19:37.693Z,18.33
2018-01-22T14:22:06.295Z,18.97
2018-01-22T14:24:34.715Z,17.10
2018-01-22T14:27:03.087Z,18.70
2018-01-22T14:29:32.392Z,20.13
2018-01-22T14:32:00.745Z,21.57
2018-01-22T14:34:29.097Z,19.60
2018-01-22T14:36:57.468Z,20.07
2018-01-22T14:39:25.832Z,19.70
2018-01-22T14:41:54.260Z,20.57
2018-01-22T14:44:22.640Z,20.13
2018-01-22T14:46:51.020Z,20.90
2018-01-22T14:49:20.178Z,20.33
2018-01-22T14:51:48.609Z,22.53
2018-01-22T14:54:17.004Z,20.80
2018-01-22T14:56:45.436Z,21.60
2018-01-22T14:59:13.879Z,22.10
2018-01-22T15:01:42.347Z,19.90
2018-01-22T15:04:10.793Z,20.87
2018-01-22T15:06:39.931Z,22.17
2018-01-22T15:09:08.344Z,20.07
2018-01-22T15:11:36.712Z,20.13
2018-01-22T15:14:05.080Z,19.97
2018-01-22T15:16:33.580Z,19.60
2018-01-22T15:19:02.020Z,19.87
2018-01-22T15:21:30.399Z,21.20
2018-01-22T15:23:58.776Z,21.00
2018-01-22T15:26:27.207Z,21.23
2018-01-22T15:28:56.453Z,24.53
2018-01-22T15:31:24.891Z,22.43
2018-01-22T15:33:53.256Z,21.60
2018-01-22T15:36:21.715Z,25.73
2018-01-22T15:38:50.116Z,24.20
2018-01-22T15:41:18.544Z,24.70
2018-01-22T15:43:47.008Z,25.30
2018-01-22T15:46:16.204Z,27.30
2018-01-22T15:48:45.404Z,25.13
2018-01-22T15:51:14.644Z,24.90
2018-01-22T15:53:43.083Z,25.00
2018-01-22T15:56:12.288Z,26.17
2018-01-22T15:58:40.824Z,26.07
2018-01-22T16:01:09.177Z,27.10
2018-01-22T16:03:37.538Z,26.13
2018-01-22T16:06:05.998Z,27.67
2018-01-22T16:08:34.431Z,28.50
2018-01-22T16:11:03.636Z,29.63
2018-01-22T16:13:32.101Z,28.20
2018-01-22T16:16:00.539Z,27.47
2018-01-22T16:18:29.775Z,26.50
2018-01-22T16:20:58.204Z,26.53
2018-01-22T16:23:26.635Z,26.70
2018-01-22T16:25:55.097Z,28.80
2018-01-22T16:28:23.583Z,27.90
2018-01-22T16:30:52.004Z,27.17
2018-01-22T16:33:20.369Z,26.57
2018-01-22T16:35:48.796Z,29.40
2018-01-22T16:38:17.932Z,26.70
2018-01-22T16:40:46.349Z,26.50
2018-01-22T16:43:14.775Z,27.93
2018-01-22T16:45:43.199Z,31.27
2018-01-22T16:48:11.668Z,27.43
2018-01-22T16:50:40.865Z,29.10
2018-01-22T16:53:09.300Z,30.57
2018-01-22T16:55:37.825Z,29.60
2018-01-22T16:58:06.263Z,30.03
2018-01-22T17:00:34.629Z,27.27
2018-01-22T17:03:03.119Z,29.70
2018-01-22T17:05:32.266Z,30.53
2018-01-22T17:08:00.707Z,30.93
2018-01-22T17:10:29.164Z,28.40
2018-01-22T17:12:58.347Z,32.43
2018-01-22T17:15:26.775Z,29.37
2018-01-22T17:17:55.231Z,33.73
2018-01-22T17:20:24.424Z,30.87
2018-01-22T17:22:53.663Z,32.60
2018-01-22T17:25:22.029Z,32.83
2018-01-22T17:27:50.400Z,33.33
2018-01-22T17:30:19.711Z,34.60
2018-01-22T17:32:48.087Z,33.07
2018-01-22T17:35:16.450Z,30.77
2018-01-22T17:37:45.606Z,30.03
2018-01-22T17:40:14.023Z,29.70
2018-01-22T17:42:42.400Z,31.07
2018-01-22T17:45:11.771Z,31.37
2018-01-22T17:47:40.194Z,31.00
2018-01-22T17:50:08.572Z,28.73
2018-01-22T17:52:37.779Z,30.53
2018-01-22T17:55:06.215Z,29.10
2018-01-22T17:57:34.616Z,30.07
2018-01-22T18:00:03.776Z,29.93
2018-01-22T18:02:32.202Z,30.40
2018-01-22T18:05:00.609Z,28.27
2018-01-22T18:07:28.988Z,28.33
2018-01-22T18:09:57.345Z,30.40
2018-01-22T18:12:26.481Z,28.13
2018-01-22T18:14:54.949Z,30.80
2018-01-22T18:17:23.383Z,31.87
2018-01-22T18:19:52.563Z,31.40
2018-01-22T18:22:20.984Z,31.60
2018-01-22T18:24:49.409Z,29.27
2018-01-22T18:27:17.830Z,27.70
2018-01-22T18:29:46.272Z,30.37
2018-01-22T18:32:14.712Z,29.23
2018-01-22T18:34:43.102Z,32.10
2018-01-22T18:37:11.536Z,29.70
2018-01-22T18:39:40.745Z,28.20
2018-01-22T18:42:09.892Z,32.93
2018-01-22T18:44:38.277Z,29.63
2018-01-22T18:47:06.634Z,31.43
2018-01-22T18:49:35.028Z,30.93
2018-01-22T18:52:03.456Z,29.17
2018-01-22T18:54:32.691Z,30.60
2018-01-22T18:57:01.135Z,28.70
2018-01-22T18:59:29.515Z,30.00
2018-01-22T19:01:58.899Z,31.17
2018-01-22T19:04:27.241Z,31.27
2018-01-22T19:06:56.382Z,30.50
2018-01-22T19:09:24.839Z,31.43
2018-01-22T19:11:53.215Z,31.63
2018-01-22T19:14:21.573Z,30.63
2018-01-22T19:16:50.054Z,29.07
2018-01-22T19:19:18.437Z,29.40
2018-01-22T19:21:46.857Z,33.10
2018-01-22T19:24:16.021Z,30.10
2018-01-22T19:26:44.372Z,30.57
2018-01-22T19:29:12.796Z,31.70
2018-01-22T19:31:41.181Z,31.27
2018-01-22T19:34:09.610Z,33.00
2018-01-22T19:36:37.972Z,33.30
2018-01-22T19:39:07.138Z,32.70
2018-01-22T19:41:35.591Z,30.67
2018-01-22T19:44:04.030Z,37.40
2018-01-22T19:46:32.405Z,36.23
2018-01-22T19:49:01.644Z,34.77
2018-01-22T19:51:30.012Z,33.60
2018-01-22T19:53:58.439Z,30.90
2018-01-22T19:56:27.016Z,33.80
2018-01-22T19:58:55.388Z,31.80
2018-01-22T20:01:24.449Z,31.30
2018-01-22T20:03:52.940Z,32.77
2018-01-22T20:06:21.304Z,37.67
2018-01-22T20:08:49.750Z,35.23
2018-01-22T20:11:19.505Z,34.40
2018-01-22T20:13:47.862Z,34.10
2018-01-22T20:16:16.305Z,33.23
2018-01-22T20:18:44.731Z,31.47
2018-01-22T20:21:13.167Z,31.33
2018-01-22T20:23:41.801Z,31.20
2018-01-22T20:26:10.228Z,31.50
2018-01-22T20:28:38.596Z,33.30
2018-01-22T20:31:07.265Z,33.67
2018-01-22T20:33:35.624Z,30.10
2018-01-22T20:36:04.053Z,31.53
2018-01-22T20:38:32.688Z,30.93
2018-01-22T20:41:01.116Z,31.90
2018-01-22T20:43:29.477Z,31.00
2018-01-22T20:45:57.920Z,34.37
2018-01-22T20:48:26.280Z,30.97
2018-01-22T20:50:56.192Z,27.67
2018-01-22T20:53:25.415Z,26.73
2018-01-22T20:55:53.801Z,26.53
2018-01-22T20:58:22.307Z,25.90
2018-01-22T21:00:50.692Z,24.53
2018-01-22T21:03:19.088Z,26.33
2018-01-22T21:05:47.511Z,25.63
2018-01-22T21:08:15.892Z,25.97
2018-01-22T21:10:44.245Z,25.50
2018-01-22T21:13:13.387Z,29.77
2018-01-22T21:15:41.839Z,27.60
2018-01-22T21:18:10.280Z,27.40
2018-01-22T21:20:38.698Z,25.40
2018-01-22T21:23:07.081Z,30.43
2018-01-22T21:25:35.473Z,30.07
2018-01-22T21:28:03.833Z,31.60
2018-01-22T21:30:32.233Z,27.80
2018-01-22T21:33:00.631Z,32.17
2018-01-22T21:35:29.067Z,28.00
2018-01-22T21:37:57.503Z,31.33
2018-01-22T21:40:25.900Z,26.67
2018-01-22T21:42:54.256Z,25.80
2018-01-22T21:45:23.383Z,28.40
2018-01-22T21:47:52.512Z,28.50
2018-01-22T21:50:20.934Z,25.60
2018-01-22T21:52:49.409Z,21.70
2018-01-22T21:55:17.844Z,26.33
2018-01-22T21:57:46.217Z,23.27
2018-01-22T22:00:14.651Z,23.53
2018-01-22T22:02:43.779Z,25.90
2018-01-22T22:05:12.897Z,25.90
2018-01-22T22:07:41.303Z,24.30
2018-01-22T22:10:09.669Z,22.50
2018-01-22T22:12:38.101Z,23.90
2018-01-22T22:15:07.267Z,23.77
2018-01-22T22:17:35.692Z,23.50
2018-01-22T22:20:04.820Z,22.50
2018-01-22T22:22:33.220Z,22.80
2018-01-22T22:25:01.635Z,24.00
2018-01-22T22:27:30.827Z,24.30
2018-01-22T22:29:59.218Z,26.50
2018-01-22T22:32:28.226Z,25.37
2018-01-22T22:34:56.887Z,24.10
2018-01-22T22:37:26.084Z,24.20
2018-01-22T22:39:54.464Z,23.33
2018-01-22T22:42:22.915Z,25.93
2018-01-22T22:44:51.335Z,23.73
2018-01-22T22:47:20.531Z,23.23
2018-01-22T22:49:49.687Z,22.30
2018-01-22T22:52:19.011Z,26.17
2018-01-22T22:54:47.443Z,26.63
2018-01-22T22:57:15.974Z,24.80
2018-01-22T22:59:44.359Z,26.90
2018-01-22T23:02:12.721Z,23.20
2018-01-22T23:04:41.088Z,24.10
2018-01-22T23:07:09.452Z,27.97
2018-01-22T23:09:37.863Z,27.40
2018-01-22T23:12:06.663Z,25.23
2018-01-22T23:14:35.857Z,23.90
2018-01-22T23:17:05.095Z,27.23
2018-01-22T23:19:33.478Z,25.87
2018-01-22T23:22:01.902Z,23.60
2018-01-22T23:24:30.313Z,25.70
2018-01-22T23:26:59.445Z,24.40
2018-01-22T23:29:27.887Z,29.03
2018-01-22T23:31:57.078Z,25.37
2018-01-22T23:34:26.276Z,29.23
2018-01-22T23:36:54.672Z,27.17
2018-01-22T23:39:23.851Z,28.10
2018-01-22T23:41:53.065Z,27.60
2018-01-22T23:44:22.291Z,28.50
2018-01-22T23:46:50.684Z,24.93
2018-01-22T23:49:19.040Z,26.83
2018-01-22T23:51:47.421Z,28.20
2018-01-22T23:54:20.697Z,26.60
2018-01-22T23:56:49.080Z,27.53
2018-01-22T23:59:18.271Z,27.50
